Time;durP1;ratioP1;P1;durP2;ratioP2;P2;SDS_P1;SDS_P2;PMS_P1;PMS_P2;Temp;Humidity;BMP_temperature;BMP_pressure;BME280_temperature;BME280_humidity;BME280_pressure;Samples;Min_cycle;Max_cycle;Signal;HPM_P1;HPM_P2
2023/11/19 00:01:42;;;;;;;2.85;2.20;;;;;;;8.31;99.40;100198.06;4957564;28;20124;-74
2023/11/19 00:04:08;;;;;;;3.63;1.40;;;;;;;8.39;99.83;100204.34;4971801;28;20027;-74
2023/11/19 00:06:33;;;;;;;6.47;2.20;;;;;;;8.43;99.21;100189.91;4975230;28;20390;-74
2023/11/19 00:09:00;;;;;;;2.97;1.45;;;;;;;8.34;99.30;100185.88;4967526;28;20042;-74
2023/11/19 00:11:25;;;;;;;2.17;1.70;;;;;;;8.35;100.00;100184.72;4969091;28;20035;-74
2023/11/19 00:13:50;;;;;;;1.70;1.50;;;;;;;8.11;100.00;100193.75;4970253;28;20045;-74
2023/11/19 00:16:16;;;;;;;4.85;1.40;;;;;;;8.15;100.00;100184.66;4972913;28;20027;-75
2023/11/19 00:18:44;;;;;;;8.98;1.83;;;;;;;8.17;100.00;100162.84;4972820;28;20181;-74
2023/11/19 00:21:10;;;;;;;3.03;1.30;;;;;;;8.29;100.00;100153.94;4970274;28;20080;-74
2023/11/19 00:23:36;;;;;;;2.45;1.27;;;;;;;8.37;100.00;100158.31;4986154;28;20460;-75
2023/11/19 00:26:02;;;;;;;3.42;1.83;;;;;;;8.34;100.00;100141.06;4973699;28;20034;-74
2023/11/19 00:28:27;;;;;;;2.22;1.20;;;;;;;8.28;100.00;100129.03;4970121;28;20074;-74
2023/11/19 00:30:55;;;;;;;1.23;1.10;;;;;;;8.27;100.00;100124.78;4969881;28;20031;-74
2023/11/19 00:33:20;;;;;;;1.70;1.17;;;;;;;8.40;100.00;100120.84;4969747;28;20129;-73
2023/11/19 00:35:46;;;;;;;1.55;1.30;;;;;;;8.39;99.66;100121.97;4965468;28;20114;-74
2023/11/19 00:38:14;;;;;;;2.22;1.10;;;;;;;8.43;100.00;100112.09;4962913;28;20525;-74
2023/11/19 00:40:40;;;;;;;2.05;1.58;;;;;;;8.34;100.00;100100.81;4972376;28;20027;-73
2023/11/19 00:43:07;;;;;;;1.75;1.33;;;;;;;8.32;100.00;100092.34;4964229;28;20027;-74
2023/11/19 00:45:32;;;;;;;1.17;1.00;;;;;;;8.22;100.00;100084.81;4975753;28;20041;-75
2023/11/19 00:48:01;;;;;;;1.35;0.98;;;;;;;8.31;100.00;100081.94;4972015;28;20022;-74
2023/11/19 00:50:26;;;;;;;0.70;0.60;;;;;;;8.46;100.00;100073.81;4978214;28;20457;-74
2023/11/19 00:52:52;;;;;;;1.17;1.02;;;;;;;8.47;100.00;100070.03;4967468;28;20039;-74
2023/11/19 00:55:17;;;;;;;1.15;0.95;;;;;;;8.48;100.00;100074.25;4969367;28;20061;-74
2023/11/19 00:57:43;;;;;;;1.02;1.00;;;;;;;8.41;100.00;100076.78;4967830;28;20093;-75
2023/11/19 01:00:17;;;;;;;2.08;1.08;;;;;;;8.53;100.00;100076.66;4975213;28;20029;-75
2023/11/19 01:02:43;;;;;;;0.98;0.77;;;;;;;8.51;100.00;100075.44;4971081;28;20445;-74
2023/11/19 01:05:09;;;;;;;0.88;0.70;;;;;;;8.48;100.00;100063.50;4971118;28;20069;-74
2023/11/19 01:07:35;;;;;;;0.75;0.60;;;;;;;8.46;99.90;100063.09;4969491;28;20576;-74
2023/11/19 01:10:00;;;;;;;0.98;0.85;;;;;;;8.49;100.00;100048.19;4986248;28;20125;-74
2023/11/19 01:12:26;;;;;;;1.52;1.42;;;;;;;8.54;100.00;100040.63;4966719;28;20030;-74
2023/11/19 01:14:51;;;;;;;1.20;1.00;;;;;;;8.47;100.00;100019.03;4984362;28;20044;-74
2023/11/19 01:17:16;;;;;;;1.63;1.13;;;;;;;8.46;100.00;100011.34;4966756;28;20039;-73
2023/11/19 01:19:43;;;;;;;0.82;0.77;;;;;;;8.49;100.00;99995.31;4976131;28;20072;-74
2023/11/19 01:22:12;;;;;;;0.80;0.80;;;;;;;8.44;100.00;99992.91;4970823;28;20062;-74
2023/11/19 01:24:37;;;;;;;1.10;1.00;;;;;;;8.47;100.00;99984.16;4969486;28;20576;-74
2023/11/19 01:27:03;;;;;;;1.02;0.70;;;;;;;8.53;100.00;99974.69;4957751;28;20062;-74
2023/11/19 01:29:28;;;;;;;0.95;0.82;;;;;;;8.47;100.00;99970.75;4973704;28;20041;-73
2023/11/19 01:31:54;;;;;;;2.47;0.80;;;;;;;8.39;100.00;99958.34;4971805;28;20509;-73
2023/11/19 01:34:19;;;;;;;0.52;0.52;;;;;;;8.34;100.00;99950.59;4975526;28;20027;-74
2023/11/19 01:36:46;;;;;;;0.30;0.30;;;;;;;8.32;100.00;99947.50;4978951;28;20532;-73
2023/11/19 01:39:12;;;;;;;1.27;0.80;;;;;;;8.31;100.00;99937.09;4974349;28;20030;-73
2023/11/19 01:41:38;;;;;;;1.38;0.80;;;;;;;8.48;100.00;99939.34;4970847;28;20037;-74
2023/11/19 01:44:06;;;;;;;0.70;0.70;;;;;;;8.43;100.00;99934.25;4975631;28;20152;-74
2023/11/19 01:46:32;;;;;;;0.40;0.40;;;;;;;8.23;100.00;99933.50;4977506;28;20035;-73
2023/11/19 01:48:59;;;;;;;2.53;0.98;;;;;;;8.32;100.00;99918.00;4987325;28;20027;-74
2023/11/19 01:51:24;;;;;;;1.92;0.65;;;;;;;8.42;100.00;99911.25;4976120;28;20041;-73
2023/11/19 01:53:50;;;;;;;0.50;0.50;;;;;;;8.55;100.00;99924.13;4974383;28;20030;-74
2023/11/19 01:56:16;;;;;;;0.35;0.35;;;;;;;8.54;100.00;99921.78;4977127;28;20097;-73
2023/11/19 01:58:44;;;;;;;0.57;0.50;;;;;;;8.47;100.00;99911.72;4979440;28;20057;-73
2023/11/19 02:01:11;;;;;;;0.85;0.68;;;;;;;8.44;100.00;99898.25;4975743;28;20062;-74
2023/11/19 02:03:37;;;;;;;2.25;0.88;;;;;;;8.40;100.00;99900.84;4973465;28;20089;-73
2023/11/19 02:06:03;;;;;;;1.25;0.55;;;;;;;8.48;100.00;99912.50;4973346;28;20047;-73
2023/11/19 02:08:29;;;;;;;0.57;0.55;;;;;;;8.54;100.00;99886.91;4974226;28;20548;-73
2023/11/19 02:10:57;;;;;;;1.50;0.70;;;;;;;8.51;100.00;99887.63;4974333;28;20146;-74
2023/11/19 02:13:25;;;;;;;0.50;0.50;;;;;;;8.50;100.00;99894.91;4970150;28;20518;-73
2023/11/19 02:15:51;;;;;;;0.45;0.45;;;;;;;8.38;100.00;99872.88;4968821;28;20033;-74
2023/11/19 02:18:29;;;;;;;0.60;0.47;;;;;;;8.21;100.00;99872.16;4968583;28;20506;-73
2023/11/19 02:20:56;;;;;;;0.35;0.35;;;;;;;8.35;100.00;99863.63;4967171;28;20038;-74
2023/11/19 02:23:23;;;;;;;0.57;0.57;;;;;;;8.47;100.00;99858.06;4971311;28;20121;-73
2023/11/19 02:26:27;;;;;;;0.85;0.60;;;;;;;8.49;100.00;99852.34;4985021;28;20075;-74
2023/11/19 02:28:53;;;;;;;0.60;0.60;;;;;;;8.50;100.00;99854.66;4971709;28;20576;-73
2023/11/19 02:31:19;;;;;;;1.08;0.63;;;;;;;8.61;100.00;99842.19;4969493;28;20043;-74
2023/11/19 02:33:44;;;;;;;0.68;0.60;;;;;;;8.57;100.00;99835.22;4967402;28;20043;-74
2023/11/19 02:36:10;;;;;;;0.60;0.60;;;;;;;8.62;100.00;99832.22;4966657;28;20141;-73
2023/11/19 02:38:39;;;;;;;0.57;0.50;;;;;;;8.67;100.00;99842.66;4974679;28;20568;-74
2023/11/19 02:41:06;;;;;;;0.60;0.50;;;;;;;8.66;100.00;99825.78;4985786;28;20042;-74
2023/11/19 02:43:33;;;;;;;0.90;0.70;;;;;;;8.64;100.00;99824.56;4971585;28;20034;-73
2023/11/19 02:46:09;;;;;;;0.63;0.47;;;;;;;8.73;100.00;99814.38;4973928;28;20079;-73
2023/11/19 02:48:36;;;;;;;0.93;0.63;;;;;;;8.68;100.00;99793.97;4969585;28;20062;-73
2023/11/19 02:51:03;;;;;;;1.33;1.10;;;;;;;8.67;100.00;99803.16;4975085;28;20477;-74
2023/11/19 02:53:32;;;;;;;0.80;0.80;;;;;;;8.61;100.00;99785.84;4975287;28;20382;-74
2023/11/19 02:56:06;;;;;;;2.25;0.73;;;;;;;8.64;100.00;99766.31;4971915;28;20410;-73
2023/11/19 02:58:31;;;;;;;1.48;0.95;;;;;;;8.53;100.00;99778.81;4973376;28;20444;-74
2023/11/19 03:00:57;;;;;;;0.98;0.63;;;;;;;8.62;100.00;99762.44;4974420;28;20034;-73
2023/11/19 03:03:38;;;;;;;0.57;0.52;;;;;;;8.58;100.00;99767.75;4983300;23;20530;-73
2023/11/19 03:06:09;;;;;;;1.15;0.70;;;;;;;8.42;100.00;99756.41;4983796;28;20656;-73
2023/11/19 03:08:35;;;;;;;0.80;0.57;;;;;;;8.51;100.00;99751.56;4971901;28;20043;-72
2023/11/19 03:11:04;;;;;;;0.90;0.60;;;;;;;8.67;100.00;99756.78;4972426;28;20104;-71
2023/11/19 03:13:30;;;;;;;1.30;0.70;;;;;;;8.65;100.00;99741.00;4971111;28;20046;-72
2023/11/19 03:15:56;;;;;;;1.23;0.88;;;;;;;8.65;100.00;99732.97;4955310;28;20031;-70
2023/11/19 03:18:21;;;;;;;1.17;1.00;;;;;;;8.76;100.00;99750.00;4966176;28;20039;-72
2023/11/19 03:20:47;;;;;;;1.30;1.08;;;;;;;8.87;100.00;99748.19;4970980;28;20054;-72
2023/11/19 03:23:13;;;;;;;0.50;0.50;;;;;;;8.91;100.00;99740.97;4971813;28;20059;-71
2023/11/19 03:25:41;;;;;;;0.50;0.50;;;;;;;8.75;100.00;99732.31;4967638;28;20104;-74
2023/11/19 03:28:07;;;;;;;1.30;0.70;;;;;;;8.73;100.00;99723.13;4955800;28;20050;-71
2023/11/19 03:30:35;;;;;;;0.70;0.68;;;;;;;8.77;100.00;99715.84;4971077;28;20428;-75
2023/11/19 03:33:04;;;;;;;0.98;0.65;;;;;;;8.86;100.00;99709.09;4969294;28;20050;-73
2023/11/19 03:35:30;;;;;;;1.13;0.80;;;;;;;8.82;100.00;99702.13;4969816;28;20097;-74
2023/11/19 03:37:58;;;;;;;0.65;0.65;;;;;;;8.86;100.00;99687.63;4966430;28;20066;-72
2023/11/19 03:40:25;;;;;;;1.58;0.88;;;;;;;8.86;100.00;99676.88;4971400;28;20035;-75
2023/11/19 03:42:50;;;;;;;0.68;0.68;;;;;;;8.91;100.00;99673.84;4966563;28;20478;-74
2023/11/19 03:45:16;;;;;;;0.60;0.60;;;;;;;8.92;100.00;99659.28;4970839;28;20031;-73
2023/11/19 03:47:41;;;;;;;1.23;0.93;;;;;;;9.04;100.00;99661.72;4963710;28;20126;-70
2023/11/19 03:50:10;;;;;;;1.02;0.93;;;;;;;9.03;100.00;99678.19;4955542;28;20121;-71
2023/11/19 03:52:36;;;;;;;1.00;0.80;;;;;;;9.04;100.00;99680.50;4969375;28;20512;-72
2023/11/19 03:55:03;;;;;;;1.00;0.73;;;;;;;9.12;100.00;99681.34;4969669;28;20038;-72
2023/11/19 03:57:28;;;;;;;1.10;0.70;;;;;;;9.22;100.00;99675.31;4952777;28;20041;-72
2023/11/19 03:59:55;;;;;;;0.60;0.60;;;;;;;9.17;100.00;99674.88;4970585;28;20129;-72
2023/11/19 04:02:20;;;;;;;1.20;0.80;;;;;;;9.19;100.00;99673.38;4969761;28;20023;-71
2023/11/19 04:04:46;;;;;;;0.93;0.75;;;;;;;9.21;100.00;99657.66;4968195;28;20041;-72
2023/11/19 04:07:11;;;;;;;0.98;0.80;;;;;;;9.12;100.00;99657.19;4968655;28;20126;-72
2023/11/19 04:09:40;;;;;;;1.15;0.88;;;;;;;9.20;100.00;99658.78;4970428;28;20027;-72
2023/11/19 04:12:06;;;;;;;0.77;0.77;;;;;;;9.11;100.00;99644.91;4969646;28;20039;-72
2023/11/19 04:14:32;;;;;;;0.85;0.75;;;;;;;9.20;100.00;99647.25;4954556;28;20062;-72
2023/11/19 04:16:57;;;;;;;0.88;0.85;;;;;;;9.15;100.00;99651.09;4958598;28;20034;-73
2023/11/19 04:19:23;;;;;;;0.75;0.75;;;;;;;9.24;100.00;99648.06;4960926;28;20047;-72
2023/11/19 04:21:48;;;;;;;0.90;0.82;;;;;;;9.29;100.00;99643.13;4969331;28;20027;-72
2023/11/19 04:24:15;;;;;;;1.23;1.00;;;;;;;9.24;100.00;99631.97;4970083;28;20126;-72
2023/11/19 04:26:42;;;;;;;2.05;1.20;;;;;;;9.20;100.00;99631.16;4964971;28;20078;-72
2023/11/19 04:29:12;;;;;;;0.80;0.80;;;;;;;9.26;100.00;99633.13;4974840;28;20502;-73
2023/11/19 04:31:38;;;;;;;1.02;0.93;;;;;;;9.25;100.00;99618.19;4970126;28;20141;-72
2023/11/19 04:34:07;;;;;;;0.95;0.90;;;;;;;9.27;100.00;99609.75;4967866;28;20138;-71
2023/11/19 04:36:33;;;;;;;0.70;0.70;;;;;;;9.33;100.00;99616.31;4969779;28;20066;-73
2023/11/19 04:38:59;;;;;;;1.10;0.88;;;;;;;9.37;100.00;99614.44;4971383;28;20058;-75
2023/11/19 04:41:27;;;;;;;1.45;0.98;;;;;;;9.40;100.00;99608.31;4985283;28;20070;-74
2023/11/19 04:43:53;;;;;;;1.40;0.90;;;;;;;9.42;100.00;99604.13;4964069;28;20485;-75
2023/11/19 04:46:19;;;;;;;0.80;0.80;;;;;;;9.37;100.00;99604.44;4968138;28;20042;-71
2023/11/19 04:48:44;;;;;;;0.68;0.68;;;;;;;9.30;100.00;99604.41;4966296;28;20042;-72
2023/11/19 04:51:10;;;;;;;1.45;0.93;;;;;;;9.28;100.00;99605.91;4969829;28;20034;-72
2023/11/19 04:53:36;;;;;;;2.03;0.93;;;;;;;9.20;100.00;99590.88;4969356;28;20517;-72
2023/11/19 04:56:07;;;;;;;1.33;0.98;;;;;;;9.25;100.00;99606.66;4968814;28;20026;-74
2023/11/19 04:58:33;;;;;;;1.80;1.00;;;;;;;9.35;100.00;99592.53;4986520;28;20035;-73
2023/11/19 05:00:59;;;;;;;1.08;0.98;;;;;;;9.31;100.00;99591.75;4965172;28;20509;-73
2023/11/19 05:03:24;;;;;;;1.42;1.02;;;;;;;9.47;100.00;99587.63;4972322;28;20069;-72
2023/11/19 05:05:50;;;;;;;2.33;1.30;;;;;;;9.51;100.00;99593.81;4980349;28;20127;-71
2023/11/19 05:08:15;;;;;;;1.10;1.00;;;;;;;9.56;100.00;99596.13;4968867;28;20046;-73
2023/11/19 05:10:41;;;;;;;2.13;1.50;;;;;;;9.54;100.00;99582.28;4968242;28;20717;-73
2023/11/19 05:13:10;;;;;;;1.55;0.90;;;;;;;9.59;100.00;99586.56;4971553;28;20034;-73
2023/11/19 05:15:35;;;;;;;1.08;0.85;;;;;;;9.68;100.00;99573.56;4982429;28;20507;-73
2023/11/19 05:18:00;;;;;;;3.25;1.55;;;;;;;9.68;100.00;99571.66;4968905;28;20022;-73
2023/11/19 05:20:26;;;;;;;1.48;1.13;;;;;;;9.76;100.00;99573.22;4970693;28;20039;-73
2023/11/19 05:22:53;;;;;;;2.42;1.42;;;;;;;9.78;100.00;99570.94;4970696;28;20037;-73
2023/11/19 05:25:20;;;;;;;1.80;1.10;;;;;;;9.74;100.00;99572.06;4970095;28;20035;-73
2023/11/19 05:27:45;;;;;;;2.08;1.08;;;;;;;9.86;100.00;99567.16;4971737;28;20034;-73
2023/11/19 05:30:11;;;;;;;3.03;1.38;;;;;;;9.81;100.00;99569.44;4973014;28;20106;-72
2023/11/19 05:32:37;;;;;;;1.85;1.20;;;;;;;9.79;100.00;99560.97;4973755;28;20130;-73
2023/11/19 05:35:02;;;;;;;2.63;1.30;;;;;;;9.84;100.00;99550.63;4964358;28;20736;-73
2023/11/19 05:37:28;;;;;;;1.88;1.30;;;;;;;10.00;100.00;99556.47;4971852;28;20086;-73
2023/11/19 05:39:53;;;;;;;2.03;1.60;;;;;;;10.03;100.00;99555.69;4969400;28;20035;-73
2023/11/19 05:42:19;;;;;;;2.00;1.35;;;;;;;10.07;100.00;99553.03;4970858;28;20035;-73
2023/11/19 05:44:44;;;;;;;2.63;1.48;;;;;;;10.02;100.00;99548.78;4969735;28;20035;-73
2023/11/19 05:47:10;;;;;;;2.33;1.48;;;;;;;10.09;100.00;99553.41;4975950;28;20586;-73
2023/11/19 05:49:35;;;;;;;1.95;1.50;;;;;;;10.13;100.00;99550.75;4967605;28;20109;-73
2023/11/19 05:52:03;;;;;;;1.55;1.10;;;;;;;10.34;100.00;99554.31;4970894;28;20093;-73
2023/11/19 05:54:28;;;;;;;1.80;1.52;;;;;;;10.38;100.00;99552.41;4985490;28;20037;-72
2023/11/19 05:56:54;;;;;;;3.55;1.92;;;;;;;10.45;100.00;99538.19;4956555;28;20038;-73
2023/11/19 05:59:20;;;;;;;2.50;1.55;;;;;;;10.46;100.00;99540.50;4965346;28;20031;-72
2023/11/19 06:01:46;;;;;;;1.42;1.23;;;;;;;10.53;100.00;99542.47;4968766;28;20046;-73
2023/11/19 06:04:12;;;;;;;3.75;1.98;;;;;;;10.55;100.00;99542.84;4971535;28;20603;-73
2023/11/19 06:06:38;;;;;;;2.85;1.52;;;;;;;10.61;100.00;99541.28;4974944;28;20046;-72
2023/11/19 06:09:05;;;;;;;2.92;1.90;;;;;;;10.64;100.00;99552.09;4972018;28;20506;-73
2023/11/19 06:11:31;;;;;;;4.07;1.92;;;;;;;10.71;100.00;99552.09;4985747;28;20031;-73
2023/11/19 06:13:57;;;;;;;1.67;1.58;;;;;;;10.83;100.00;99542.88;4973559;28;20520;-73
2023/11/19 06:16:22;;;;;;;3.78;2.30;;;;;;;10.88;100.00;99545.19;4969997;28;20556;-73
2023/11/19 06:18:48;;;;;;;3.55;2.15;;;;;;;10.96;100.00;99544.03;4972759;28;20042;-72
2023/11/19 06:21:13;;;;;;;4.20;2.33;;;;;;;10.99;100.00;99539.81;4973126;28;20027;-73
2023/11/19 06:23:39;;;;;;;4.88;1.98;;;;;;;11.08;100.00;99542.88;4972625;28;20089;-72
2023/11/19 06:26:05;;;;;;;3.35;1.90;;;;;;;11.04;100.00;99542.09;4971371;28;20034;-73
2023/11/19 06:28:31;;;;;;;4.47;2.20;;;;;;;11.06;100.00;99553.28;4972505;28;20030;-72
2023/11/19 06:30:57;;;;;;;4.15;2.05;;;;;;;11.08;100.00;99548.28;4968068;28;20042;-73
2023/11/19 06:33:24;;;;;;;4.85;2.40;;;;;;;11.12;100.00;99549.03;4966482;28;20118;-73
2023/11/19 06:35:50;;;;;;;3.83;2.28;;;;;;;11.20;100.00;99559.44;4972955;28;20030;-73
2023/11/19 06:38:15;;;;;;;3.22;2.20;;;;;;;11.26;100.00;99555.22;4963586;28;20458;-73
2023/11/19 06:40:41;;;;;;;4.60;2.22;;;;;;;11.33;100.00;99559.81;4970208;28;20073;-73
2023/11/19 06:43:08;;;;;;;3.65;1.85;;;;;;;11.32;100.00;99552.91;4970227;28;20034;-72
2023/11/19 06:45:34;;;;;;;3.95;2.40;;;;;;;11.40;100.00;99559.81;4972202;28;20023;-73
2023/11/19 06:48:06;;;;;;;3.45;2.13;;;;;;;11.45;100.00;99559.41;4973930;28;20529;-72
2023/11/19 06:50:32;;;;;;;4.22;2.05;;;;;;;11.54;100.00;99549.00;4970128;28;20092;-73
2023/11/19 06:52:57;;;;;;;3.75;1.85;;;;;;;11.56;100.00;99555.56;4973115;28;20038;-73
2023/11/19 06:55:23;;;;;;;4.38;2.05;;;;;;;11.61;100.00;99554.41;4971750;28;20046;-73
2023/11/19 06:57:48;;;;;;;5.22;2.25;;;;;;;11.62;100.00;99540.53;4974142;28;20113;-73
2023/11/19 07:00:14;;;;;;;3.10;2.25;;;;;;;11.65;100.00;99547.84;4966516;28;20054;-74
2023/11/19 07:02:39;;;;;;;4.30;2.13;;;;;;;11.70;100.00;99538.59;4969378;28;20520;-74
2023/11/19 07:05:05;;;;;;;3.08;1.95;;;;;;;11.77;100.00;99552.84;4971318;28;20437;-73
2023/11/19 07:07:32;;;;;;;6.55;1.95;;;;;;;11.89;100.00;99546.25;4972432;28;20478;-73
2023/11/19 07:09:58;;;;;;;4.00;1.70;;;;;;;11.94;100.00;99553.97;4969031;28;20153;-73
2023/11/19 07:12:26;;;;;;;4.72;1.95;;;;;;;11.96;100.00;99557.03;4968864;28;20037;-71
2023/11/19 07:14:52;;;;;;;5.60;2.28;;;;;;;12.07;100.00;99555.06;4970706;28;20031;-73
2023/11/19 07:17:20;;;;;;;7.28;1.95;;;;;;;11.97;100.00;99561.25;4969479;28;20108;-73
2023/11/19 07:19:46;;;;;;;3.72;1.73;;;;;;;12.09;100.00;99551.97;4970667;28;20101;-73
2023/11/19 07:22:12;;;;;;;4.65;1.75;;;;;;;12.27;100.00;99553.41;4962935;28;20051;-73
2023/11/19 07:24:40;;;;;;;5.50;2.10;;;;;;;12.44;100.00;99559.91;4971206;28;20098;-73
2023/11/19 07:27:06;;;;;;;2.13;1.50;;;;;;;12.43;100.00;99561.84;4972226;28;20078;-72
2023/11/19 07:29:32;;;;;;;2.17;1.55;;;;;;;12.48;100.00;99561.44;4965607;28;20047;-73
2023/11/19 07:31:57;;;;;;;2.45;1.35;;;;;;;12.56;100.00;99564.88;4966265;28;20035;-71
2023/11/19 07:34:23;;;;;;;3.75;1.77;;;;;;;12.55;100.00;99564.09;4968865;28;20478;-73
2023/11/19 07:36:49;;;;;;;3.17;1.73;;;;;;;12.64;100.00;99569.81;4986223;28;20037;-73
2023/11/19 07:39:14;;;;;;;2.33;1.52;;;;;;;12.69;100.00;99574.03;4966315;28;20069;-72
2023/11/19 07:41:40;;;;;;;8.30;1.85;;;;;;;12.69;100.00;99574.81;4969351;28;20170;-73
2023/11/19 07:44:06;;;;;;;1.92;1.40;;;;;;;12.64;100.00;99577.91;4969012;28;20478;-73
2023/11/19 07:46:32;;;;;;;4.88;2.22;;;;;;;12.68;100.00;99567.09;4962811;28;20406;-73
2023/11/19 07:48:57;;;;;;;1.45;0.90;;;;;;;12.80;100.00;99577.44;4985130;28;20047;-73
2023/11/19 07:51:23;;;;;;;3.70;1.20;;;;;;;12.84;100.00;99582.81;4968254;28;20035;-72
2023/11/19 07:53:52;;;;;;;4.13;1.30;;;;;;;12.91;100.00;99563.88;4963011;28;20105;-72
2023/11/19 07:56:17;;;;;;;3.00;1.27;;;;;;;12.90;100.00;99576.59;4970239;28;20034;-73
2023/11/19 07:58:43;;;;;;;2.55;1.10;;;;;;;12.97;100.00;99578.50;4970253;28;20063;-71
2023/11/19 08:01:11;;;;;;;2.85;1.25;;;;;;;12.98;100.00;99585.44;4969279;28;20121;-73
2023/11/19 08:03:36;;;;;;;2.83;1.42;;;;;;;13.04;100.00;99578.47;4973880;28;20043;-73
2023/11/19 08:06:03;;;;;;;2.20;1.20;;;;;;;13.10;100.00;99576.88;4970945;28;20090;-73
2023/11/19 08:08:33;;;;;;;7.20;2.05;;;;;;;13.20;100.00;99587.59;4969557;28;20485;-73
2023/11/19 08:11:01;;;;;;;1.48;1.02;;;;;;;13.12;100.00;99586.16;4964855;28;20038;-73
2023/11/19 08:13:27;;;;;;;3.30;1.27;;;;;;;13.11;100.00;99590.00;4970894;28;20041;-73
2023/11/19 08:15:52;;;;;;;4.10;1.20;;;;;;;13.07;100.00;99585.78;4953107;28;20557;-73
2023/11/19 08:18:18;;;;;;;6.22;2.00;;;;;;;13.15;100.00;99590.75;4967934;28;20117;-73
2023/11/19 08:20:44;;;;;;;6.70;1.13;;;;;;;13.15;100.00;99590.75;4965500;28;20516;-73
2023/11/19 08:23:10;;;;;;;1.95;1.23;;;;;;;13.26;100.00;99586.00;4967380;28;20409;-69
2023/11/19 08:25:36;;;;;;;6.15;1.25;;;;;;;13.13;100.00;99600.41;4967896;28;20023;-72
2023/11/19 08:28:03;;;;;;;2.17;1.00;;;;;;;13.27;100.00;99605.72;4968568;28;20037;-73
2023/11/19 08:30:29;;;;;;;7.28;1.50;;;;;;;13.29;100.00;99598.75;4969438;28;20041;-73
2023/11/19 08:32:54;;;;;;;2.17;1.02;;;;;;;13.32;100.00;99610.69;4969128;28;20042;-73
2023/11/19 08:35:20;;;;;;;7.40;1.45;;;;;;;13.30;100.00;99607.63;4970618;28;20046;-72
2023/11/19 08:37:46;;;;;;;9.18;1.27;;;;;;;13.21;100.00;99620.81;4968531;28;20030;-71
2023/11/19 08:40:12;;;;;;;9.20;1.98;;;;;;;13.20;100.00;99619.31;4967936;28;20039;-73
2023/11/19 08:42:39;;;;;;;5.13;1.58;;;;;;;13.26;100.00;99617.69;4971857;28;20057;-73
2023/11/19 08:45:05;;;;;;;8.30;2.47;;;;;;;13.40;100.00;99612.19;4969814;28;20096;-73
2023/11/19 08:47:30;;;;;;;7.68;1.27;;;;;;;13.38;100.00;99612.56;4983232;28;20110;-73
2023/11/19 08:49:56;;;;;;;5.97;1.83;;;;;;;13.31;100.00;99612.66;4994427;28;20500;-73
2023/11/19 08:52:22;;;;;;;11.00;1.88;;;;;;;13.48;100.00;99622.53;4975791;28;20042;-72
2023/11/19 08:54:47;;;;;;;1.90;1.25;;;;;;;13.49;100.00;99623.31;4974984;28;20039;-73
2023/11/19 08:57:13;;;;;;;3.40;1.15;;;;;;;13.47;100.00;99618.28;4972910;28;20041;-72
2023/11/19 08:59:38;;;;;;;7.88;1.23;;;;;;;13.40;100.00;99620.28;4962481;28;20109;-73
2023/11/19 09:02:05;;;;;;;3.15;1.20;;;;;;;13.41;100.00;99624.53;4976633;28;20047;-73
2023/11/19 09:04:31;;;;;;;4.97;1.33;;;;;;;13.39;100.00;99626.88;4974793;28;20034;-73
2023/11/19 09:06:57;;;;;;;8.15;1.25;;;;;;;13.52;100.00;99631.41;4979289;28;20169;-73
2023/11/19 09:09:23;;;;;;;6.28;0.98;;;;;;;13.65;100.00;99637.06;4975605;28;20038;-73
2023/11/19 09:11:48;;;;;;;6.32;1.90;;;;;;;13.60;100.00;99637.53;4973439;28;20058;-73
2023/11/19 09:14:14;;;;;;;7.20;1.48;;;;;;;13.49;100.00;99624.06;4975153;28;20127;-73
2023/11/19 09:16:39;;;;;;;5.65;1.15;;;;;;;13.51;100.00;99637.97;4967660;28;20031;-73
2023/11/19 09:19:08;;;;;;;5.47;1.17;;;;;;;13.51;100.00;99634.50;4961671;28;20026;-73
2023/11/19 09:21:36;;;;;;;11.13;1.90;;;;;;;13.43;100.00;99636.47;4968213;28;20482;-73
2023/11/19 09:24:01;;;;;;;5.75;1.35;;;;;;;13.50;100.00;99643.78;4969405;28;20425;-74
2023/11/19 09:26:27;;;;;;;10.73;2.63;;;;;;;13.56;100.00;99636.78;4966081;28;20039;-73
2023/11/19 09:28:54;;;;;;;11.93;1.23;;;;;;;13.51;100.00;99643.38;4967423;28;20027;-73
2023/11/19 09:31:19;;;;;;;10.23;1.45;;;;;;;13.56;100.00;99640.25;4967068;28;20747;-73
2023/11/19 09:33:45;;;;;;;9.85;1.67;;;;;;;13.64;100.00;99648.31;4966694;28;20035;-72
2023/11/19 09:36:14;;;;;;;10.57;1.17;;;;;;;13.39;100.00;99643.09;4982817;28;20037;-73
2023/11/19 09:38:40;;;;;;;13.48;2.40;;;;;;;13.50;100.00;99649.97;4982394;28;20081;-73
2023/11/19 09:41:09;;;;;;;11.02;1.42;;;;;;;13.73;100.00;99645.91;4965031;28;20027;-73
2023/11/19 09:43:38;;;;;;;9.63;1.42;;;;;;;13.84;100.00;99647.34;4967037;28;20101;-72
2023/11/19 09:46:13;;;;;;;4.25;1.27;;;;;;;13.83;100.00;99647.75;4964087;28;20127;-72
2023/11/19 09:48:42;;;;;;;6.93;1.73;;;;;;;13.88;100.00;99641.91;4971313;28;20041;-73
2023/11/19 09:51:09;;;;;;;4.10;1.25;;;;;;;13.91;100.00;99646.50;4966295;28;20054;-73
2023/11/19 09:53:36;;;;;;;2.42;1.35;;;;;;;14.00;100.00;99647.56;4974402;28;20107;-73
2023/11/19 09:56:06;;;;;;;9.60;2.22;;;;;;;14.05;100.00;99647.13;4987815;28;20131;-72
2023/11/19 09:58:32;;;;;;;5.38;1.20;;;;;;;14.09;100.00;99653.28;4952385;28;20070;-73
2023/11/19 10:00:59;;;;;;;1.00;0.85;;;;;;;14.15;100.00;99653.63;4971950;28;20026;-73
2023/11/19 10:03:26;;;;;;;5.07;1.45;;;;;;;14.16;100.00;99647.81;4970814;28;20122;-71
2023/11/19 10:05:54;;;;;;;8.73;2.30;;;;;;;14.29;100.00;99648.84;4968632;28;20023;-73
2023/11/19 10:08:20;;;;;;;9.10;1.00;;;;;;;14.15;100.00;99640.84;4968684;28;20034;-73
2023/11/19 10:10:47;;;;;;;5.57;1.75;;;;;;;14.02;100.00;99636.34;4967425;28;20042;-73
2023/11/19 10:13:14;;;;;;;4.68;1.23;;;;;;;14.08;100.00;99634.72;4966529;28;20030;-73
2023/11/19 10:15:40;;;;;;;4.18;1.00;;;;;;;13.99;100.00;99631.75;4973645;28;20023;-73
2023/11/19 10:18:08;;;;;;;13.73;1.30;;;;;;;13.98;100.00;99639.09;4968977;28;20599;-73
2023/11/19 10:20:37;;;;;;;9.20;1.38;;;;;;;13.93;100.00;99633.34;4973554;28;20042;-73
2023/11/19 10:23:05;;;;;;;5.18;1.38;;;;;;;13.89;100.00;99632.63;4968529;28;20084;-73
2023/11/19 10:25:33;;;;;;;10.68;1.42;;;;;;;13.90;100.00;99640.31;4964969;28;20039;-73
2023/11/19 10:28:02;;;;;;;8.43;1.23;;;;;;;13.82;100.00;99644.25;4973099;28;20049;-72
2023/11/19 10:30:29;;;;;;;6.47;1.40;;;;;;;13.74;100.00;99644.75;4988753;28;20490;-73
2023/11/19 10:33:19;;;;;;;11.13;1.90;;;;;;;13.78;100.00;99637.38;4967917;28;20098;-73
2023/11/19 10:35:59;;;;;;;9.98;1.35;;;;;;;13.84;100.00;99638.47;4972084;28;20130;-70
2023/11/19 10:38:26;;;;;;;5.88;1.40;;;;;;;13.95;100.00;99645.31;4966810;28;20043;-72
2023/11/19 10:40:52;;;;;;;8.57;1.40;;;;;;;13.90;100.00;99643.03;4982646;28;20030;-73
2023/11/19 10:43:22;;;;;;;5.55;1.67;;;;;;;14.05;100.00;99636.28;4968367;28;20035;-72
2023/11/19 10:45:48;;;;;;;9.10;1.27;;;;;;;14.03;100.00;99644.06;4969803;28;20102;-73
2023/11/19 10:48:14;;;;;;;6.00;1.58;;;;;;;14.00;100.00;99652.22;4965292;28;20778;-72
2023/11/19 10:50:41;;;;;;;6.18;1.13;;;;;;;14.05;100.00;99657.22;4969306;28;20039;-73
2023/11/19 10:53:08;;;;;;;11.18;1.20;;;;;;;14.01;100.00;99654.53;4956500;28;20022;-73
2023/11/19 10:55:38;;;;;;;5.05;1.33;;;;;;;13.98;100.00;99658.03;4966221;28;20042;-74
2023/11/19 10:58:16;;;;;;;2.20;0.80;;;;;;;13.90;100.00;99653.09;4981427;28;20039;-72
2023/11/19 11:00:50;;;;;;;6.95;1.77;;;;;;;13.94;100.00;99651.88;4973135;28;20497;-72
2023/11/19 11:03:20;;;;;;;15.05;1.55;;;;;;;14.02;100.00;99653.34;4963145;28;20070;-73
2023/11/19 11:05:47;;;;;;;2.50;0.43;;;;;;;14.19;100.00;99652.41;4961416;28;20035;-71
2023/11/19 11:08:13;;;;;;;11.07;2.10;;;;;;;14.08;100.00;99659.88;4966673;28;20018;-73
2023/11/19 11:10:53;;;;;;;11.82;1.52;;;;;;;14.03;100.00;99656.84;4968454;28;20035;-73
2023/11/19 11:13:19;;;;;;;3.83;1.38;;;;;;;14.17;100.00;99662.09;4968320;28;20532;-73
2023/11/19 11:15:49;;;;;;;5.25;2.20;;;;;;;14.22;100.00;99657.03;4972679;28;20046;-73
2023/11/19 11:18:14;;;;;;;4.72;1.05;;;;;;;14.05;100.00;99654.50;4981968;28;20058;-72
2023/11/19 11:20:40;;;;;;;12.05;1.52;;;;;;;13.84;100.00;99657.41;4968478;28;20042;-73
2023/11/19 11:23:29;;;;;;;6.20;0.98;;;;;;;14.04;100.00;99659.13;4964961;28;20538;-69
2023/11/19 11:26:15;;;;;;;11.15;1.52;;;;;;;14.10;100.00;99664.88;4969611;28;20042;-72